sensor_id;sensor_type;location;lat;lon;timestamp;pressure;altitude;pressure_sealevel;temperature;humidity
56142;BME280;42018;48.588;10.836;2024-01-15T00:01:32;95583.44;;;-2.89;72.44
56142;BME280;42018;48.588;10.836;2024-01-15T00:04:17;95579.16;;;-3.02;72.87
56142;BME280;42018;48.588;10.836;2024-01-15T00:07:03;95583.50;;;-2.96;72.59
56142;BME280;42018;48.588;10.836;2024-01-15T00:09:48;95586.59;;;-2.80;71.88
56142;BME280;42018;48.588;10.836;2024-01-15T00:12:34;95590.28;;;-2.95;72.37
56142;BME280;42018;48.588;10.836;2024-01-15T00:15:19;95584.25;;;-2.89;72.79
56142;BME280;42018;48.588;10.836;2024-01-15T00:18:05;95584.31;;;-2.95;72.68
56142;BME280;42018;48.588;10.836;2024-01-15T00:20:51;95573.63;;;-3.12;73.23
56142;BME280;42018;48.588;10.836;2024-01-15T00:23:37;95586.91;;;-3.33;74.76
56142;BME280;42018;48.588;10.836;2024-01-15T00:26:22;95572.34;;;-2.96;73.19
56142;BME280;42018;48.588;10.836;2024-01-15T00:29:08;95573.97;;;-2.70;72.39
56142;BME280;42018;48.588;10.836;2024-01-15T00:31:54;95576.97;;;-2.73;72.01
56142;BME280;42018;48.588;10.836;2024-01-15T00:34:39;95565.97;;;-2.44;71.22
56142;BME280;42018;48.588;10.836;2024-01-15T00:37:25;95563.06;;;-2.54;71.37
56142;BME280;42018;48.588;10.836;2024-01-15T00:40:10;95576.81;;;-2.53;71.54
56142;BME280;42018;48.588;10.836;2024-01-15T00:42:56;95589.94;;;-2.73;71.76
56142;BME280;42018;48.588;10.836;2024-01-15T00:45:41;95589.63;;;-2.58;72.00
56142;BME280;42018;48.588;10.836;2024-01-15T00:48:27;95587.69;;;-2.63;71.77
56142;BME280;42018;48.588;10.836;2024-01-15T00:51:12;95581.63;;;-2.32;71.19
56142;BME280;42018;48.588;10.836;2024-01-15T00:53:58;95579.53;;;-2.42;70.92
56142;BME280;42018;48.588;10.836;2024-01-15T00:56:43;95573.13;;;-2.39;70.60
56142;BME280;42018;48.588;10.836;2024-01-15T00:59:29;95580.16;;;-2.46;70.96
56142;BME280;42018;48.588;10.836;2024-01-15T01:02:14;95576.50;;;-2.38;70.97
56142;BME280;42018;48.588;10.836;2024-01-15T01:04:59;95578.22;;;-2.51;70.75
56142;BME280;42018;48.588;10.836;2024-01-15T01:07:45;95577.47;;;-2.58;71.49
56142;BME280;42018;48.588;10.836;2024-01-15T01:10:31;95574.22;;;-2.28;70.59
56142;BME280;42018;48.588;10.836;2024-01-15T01:13:16;95584.59;;;-2.28;70.24
56142;BME280;42018;48.588;10.836;2024-01-15T01:16:02;95577.84;;;-2.54;71.34
56142;BME280;42018;48.588;10.836;2024-01-15T01:18:48;95578.94;;;-2.69;71.89
56142;BME280;42018;48.588;10.836;2024-01-15T01:21:34;95583.28;;;-2.37;71.19
56142;BME280;42018;48.588;10.836;2024-01-15T01:24:19;95578.72;;;-2.42;70.84
56142;BME280;42018;48.588;10.836;2024-01-15T01:27:05;95576.25;;;-2.30;70.15
56142;BME280;42018;48.588;10.836;2024-01-15T01:29:50;95577.59;;;-2.03;69.98
56142;BME280;42018;48.588;10.836;2024-01-15T01:32:37;95576.63;;;-2.27;69.94
56142;BME280;42018;48.588;10.836;2024-01-15T01:35:22;95565.59;;;-2.22;70.28
56142;BME280;42018;48.588;10.836;2024-01-15T01:38:08;95558.63;;;-2.03;69.31
56142;BME280;42018;48.588;10.836;2024-01-15T01:40:53;95553.97;;;-1.95;69.09
56142;BME280;42018;48.588;10.836;2024-01-15T01:43:39;95563.97;;;-2.17;69.28
56142;BME280;42018;48.588;10.836;2024-01-15T01:46:26;95550.41;;;-2.00;68.82
56142;BME280;42018;48.588;10.836;2024-01-15T01:49:12;95560.19;;;-2.46;70.56
56142;BME280;42018;48.588;10.836;2024-01-15T01:52:00;95556.63;;;-2.45;70.51
56142;BME280;42018;48.588;10.836;2024-01-15T01:54:46;95550.84;;;-2.47;70.54
56142;BME280;42018;48.588;10.836;2024-01-15T01:57:33;95555.97;;;-2.40;70.38
56142;BME280;42018;48.588;10.836;2024-01-15T02:00:19;95548.03;;;-2.20;70.05
56142;BME280;42018;48.588;10.836;2024-01-15T02:03:05;95552.97;;;-2.37;69.93
56142;BME280;42018;48.588;10.836;2024-01-15T02:05:51;95559.81;;;-1.99;69.08
56142;BME280;42018;48.588;10.836;2024-01-15T02:08:37;95552.25;;;-2.26;69.60
56142;BME280;42018;48.588;10.836;2024-01-15T02:11:23;95558.06;;;-2.49;70.24
56142;BME280;42018;48.588;10.836;2024-01-15T02:14:09;95557.00;;;-2.66;70.67
56142;BME280;42018;48.588;10.836;2024-01-15T02:16:55;95557.59;;;-2.46;70.44
56142;BME280;42018;48.588;10.836;2024-01-15T02:19:41;95556.72;;;-2.33;70.12
56142;BME280;42018;48.588;10.836;2024-01-15T02:22:26;95555.50;;;-2.30;69.38
56142;BME280;42018;48.588;10.836;2024-01-15T02:25:12;95559.44;;;-2.28;69.65
56142;BME280;42018;48.588;10.836;2024-01-15T02:27:58;95551.78;;;-2.16;68.63
56142;BME280;42018;48.588;10.836;2024-01-15T02:30:43;95552.38;;;-1.96;68.12
56142;BME280;42018;48.588;10.836;2024-01-15T02:33:29;95553.31;;;-1.90;67.41
56142;BME280;42018;48.588;10.836;2024-01-15T02:36:15;95560.97;;;-1.95;67.48
56142;BME280;42018;48.588;10.836;2024-01-15T02:39:01;95561.81;;;-1.83;67.19
56142;BME280;42018;48.588;10.836;2024-01-15T02:41:47;95562.28;;;-2.11;68.61
56142;BME280;42018;48.588;10.836;2024-01-15T02:44:32;95556.53;;;-2.13;68.71
56142;BME280;42018;48.588;10.836;2024-01-15T02:47:18;95553.97;;;-1.76;67.47
56142;BME280;42018;48.588;10.836;2024-01-15T02:50:03;95551.06;;;-1.86;67.67
56142;BME280;42018;48.588;10.836;2024-01-15T02:52:49;95538.31;;;-1.88;68.04
56142;BME280;42018;48.588;10.836;2024-01-15T02:55:35;95552.16;;;-1.76;67.60
56142;BME280;42018;48.588;10.836;2024-01-15T02:58:21;95545.75;;;-1.43;67.03
56142;BME280;42018;48.588;10.836;2024-01-15T03:01:07;95541.38;;;-1.61;67.58
56142;BME280;42018;48.588;10.836;2024-01-15T03:03:52;95539.22;;;-1.46;67.16
56142;BME280;42018;48.588;10.836;2024-01-15T03:06:40;95550.56;;;-1.95;68.57
56142;BME280;42018;48.588;10.836;2024-01-15T03:09:26;95549.03;;;-1.48;67.82
56142;BME280;42018;48.588;10.836;2024-01-15T03:12:11;95556.03;;;-1.48;67.60
56142;BME280;42018;48.588;10.836;2024-01-15T03:14:58;95555.53;;;-1.57;67.97
56142;BME280;42018;48.588;10.836;2024-01-15T03:17:44;95554.09;;;-1.71;68.43
56142;BME280;42018;48.588;10.836;2024-01-15T03:20:30;95556.16;;;-1.43;68.00
56142;BME280;42018;48.588;10.836;2024-01-15T03:23:15;95547.09;;;-1.22;67.48
56142;BME280;42018;48.588;10.836;2024-01-15T03:26:01;95539.16;;;-1.57;68.27
56142;BME280;42018;48.588;10.836;2024-01-15T03:28:46;95543.06;;;-1.66;68.63
56142;BME280;42018;48.588;10.836;2024-01-15T03:31:32;95537.94;;;-1.55;68.60
56142;BME280;42018;48.588;10.836;2024-01-15T03:34:18;95537.69;;;-1.53;68.30
56142;BME280;42018;48.588;10.836;2024-01-15T03:37:03;95541.41;;;-1.79;69.23
56142;BME280;42018;48.588;10.836;2024-01-15T03:39:49;95535.84;;;-1.64;68.61
56142;BME280;42018;48.588;10.836;2024-01-15T03:42:34;95541.53;;;-1.56;68.69
56142;BME280;42018;48.588;10.836;2024-01-15T03:45:20;95539.00;;;-1.44;68.57
56142;BME280;42018;48.588;10.836;2024-01-15T03:48:05;95535.53;;;-1.38;67.81
56142;BME280;42018;48.588;10.836;2024-01-15T03:50:51;95540.31;;;-1.23;67.74
56142;BME280;42018;48.588;10.836;2024-01-15T03:53:38;95538.00;;;-1.13;67.35
56142;BME280;42018;48.588;10.836;2024-01-15T03:56:23;95532.47;;;-1.05;67.25
56142;BME280;42018;48.588;10.836;2024-01-15T03:59:09;95533.69;;;-0.77;66.26
56142;BME280;42018;48.588;10.836;2024-01-15T04:01:54;95537.16;;;-0.83;66.63
56142;BME280;42018;48.588;10.836;2024-01-15T04:04:42;95542.59;;;-0.85;66.57
56142;BME280;42018;48.588;10.836;2024-01-15T04:07:28;95542.16;;;-1.12;66.88
56142;BME280;42018;48.588;10.836;2024-01-15T04:10:13;95542.97;;;-1.11;67.24
56142;BME280;42018;48.588;10.836;2024-01-15T04:12:59;95542.25;;;-1.18;67.40
56142;BME280;42018;48.588;10.836;2024-01-15T04:15:45;95547.69;;;-1.20;67.70
56142;BME280;42018;48.588;10.836;2024-01-15T04:18:30;95537.66;;;-1.05;67.74
56142;BME280;42018;48.588;10.836;2024-01-15T04:21:17;95530.19;;;-0.71;66.57
56142;BME280;42018;48.588;10.836;2024-01-15T04:24:04;95536.09;;;-1.06;67.30
56142;BME280;42018;48.588;10.836;2024-01-15T04:26:49;95531.53;;;-0.80;66.74
56142;BME280;42018;48.588;10.836;2024-01-15T04:29:37;95530.19;;;-0.59;66.48
56142;BME280;42018;48.588;10.836;2024-01-15T04:32:23;95522.41;;;-0.71;66.38
56142;BME280;42018;48.588;10.836;2024-01-15T04:35:08;95522.16;;;-0.58;66.47
56142;BME280;42018;48.588;10.836;2024-01-15T04:37:54;95530.31;;;-0.66;66.42
56142;BME280;42018;48.588;10.836;2024-01-15T04:40:39;95536.03;;;-0.87;66.93
56142;BME280;42018;48.588;10.836;2024-01-15T04:43:26;95533.94;;;-0.67;66.74
56142;BME280;42018;48.588;10.836;2024-01-15T04:46:11;95533.00;;;-0.84;67.24
56142;BME280;42018;48.588;10.836;2024-01-15T04:48:57;95527.47;;;-0.64;66.58
56142;BME280;42018;48.588;10.836;2024-01-15T04:51:42;95533.44;;;-0.87;66.19
56142;BME280;42018;48.588;10.836;2024-01-15T04:54:28;95535.25;;;-0.76;67.22
56142;BME280;42018;48.588;10.836;2024-01-15T04:57:13;95531.16;;;-0.84;66.55
56142;BME280;42018;48.588;10.836;2024-01-15T04:59:59;95529.38;;;-0.72;66.59
56142;BME280;42018;48.588;10.836;2024-01-15T05:02:44;95519.09;;;-0.66;66.55
56142;BME280;42018;48.588;10.836;2024-01-15T05:05:30;95525.34;;;-0.56;65.97
56142;BME280;42018;48.588;10.836;2024-01-15T05:08:15;95512.88;;;-0.54;66.00
56142;BME280;42018;48.588;10.836;2024-01-15T05:11:01;95520.13;;;-0.32;65.63
56142;BME280;42018;48.588;10.836;2024-01-15T05:13:46;95523.09;;;-0.52;65.70
56142;BME280;42018;48.588;10.836;2024-01-15T05:16:32;95517.09;;;-0.53;65.95
56142;BME280;42018;48.588;10.836;2024-01-15T05:19:18;95515.16;;;-0.57;65.97
56142;BME280;42018;48.588;10.836;2024-01-15T05:22:03;95510.06;;;-0.40;65.42
56142;BME280;42018;48.588;10.836;2024-01-15T05:24:49;95512.00;;;-0.47;65.77
56142;BME280;42018;48.588;10.836;2024-01-15T05:27:34;95522.59;;;-0.61;65.75
56142;BME280;42018;48.588;10.836;2024-01-15T05:30:20;95520.81;;;-0.49;65.86
56142;BME280;42018;48.588;10.836;2024-01-15T05:33:05;95519.34;;;-0.56;65.64
56142;BME280;42018;48.588;10.836;2024-01-15T05:35:52;95520.59;;;-0.35;65.34
56142;BME280;42018;48.588;10.836;2024-01-15T05:38:39;95525.56;;;-0.34;64.98
56142;BME280;42018;48.588;10.836;2024-01-15T05:41:25;95525.28;;;-0.79;66.26
56142;BME280;42018;48.588;10.836;2024-01-15T05:44:10;95522.06;;;-0.63;65.75
56142;BME280;42018;48.588;10.836;2024-01-15T05:46:56;95526.47;;;-0.40;65.39
56142;BME280;42018;48.588;10.836;2024-01-15T05:49:41;95514.16;;;-0.56;65.64
56142;BME280;42018;48.588;10.836;2024-01-15T05:52:27;95519.25;;;-0.38;65.19
56142;BME280;42018;48.588;10.836;2024-01-15T05:55:12;95511.78;;;-0.34;65.02
56142;BME280;42018;48.588;10.836;2024-01-15T05:57:58;95514.25;;;-0.16;64.37
56142;BME280;42018;48.588;10.836;2024-01-15T06:00:43;95512.91;;;-0.42;64.51
56142;BME280;42018;48.588;10.836;2024-01-15T06:03:29;95512.31;;;-0.09;63.59
56142;BME280;42018;48.588;10.836;2024-01-15T06:06:14;95516.41;;;-0.13;63.69
56142;BME280;42018;48.588;10.836;2024-01-15T06:09:00;95513.13;;;-0.43;64.39
56142;BME280;42018;48.588;10.836;2024-01-15T06:11:50;95506.34;;;-0.21;63.64
56142;BME280;42018;48.588;10.836;2024-01-15T06:14:35;95512.44;;;-0.27;63.67
56142;BME280;42018;48.588;10.836;2024-01-15T06:17:21;95512.00;;;-0.24;63.48
56142;BME280;42018;48.588;10.836;2024-01-15T06:20:07;95514.03;;;-0.26;63.42
56142;BME280;42018;48.588;10.836;2024-01-15T06:22:54;95508.69;;;-0.43;63.87
56142;BME280;42018;48.588;10.836;2024-01-15T06:25:39;95515.94;;;-0.10;63.07
56142;BME280;42018;48.588;10.836;2024-01-15T06:28:25;95504.50;;;-0.32;63.17
56142;BME280;42018;48.588;10.836;2024-01-15T06:31:11;95503.81;;;-0.04;62.83
56142;BME280;42018;48.588;10.836;2024-01-15T06:33:56;95511.66;;;-0.51;64.04
56142;BME280;42018;48.588;10.836;2024-01-15T06:36:42;95502.50;;;-0.42;64.08
56142;BME280;42018;48.588;10.836;2024-01-15T06:39:27;95502.47;;;-0.18;63.66
56142;BME280;42018;48.588;10.836;2024-01-15T06:42:13;95506.88;;;-0.07;63.12
56142;BME280;42018;48.588;10.836;2024-01-15T06:44:58;95500.75;;;-0.01;62.83
56142;BME280;42018;48.588;10.836;2024-01-15T06:47:44;95496.13;;;-0.11;63.26
56142;BME280;42018;48.588;10.836;2024-01-15T06:50:29;95500.47;;;-0.28;63.17
56142;BME280;42018;48.588;10.836;2024-01-15T06:53:15;95492.53;;;-0.21;62.99
56142;BME280;42018;48.588;10.836;2024-01-15T06:56:01;95499.88;;;-0.30;63.58
56142;BME280;42018;48.588;10.836;2024-01-15T06:58:46;95487.88;;;-0.19;63.30
56142;BME280;42018;48.588;10.836;2024-01-15T07:01:32;95486.28;;;-0.09;63.34
56142;BME280;42018;48.588;10.836;2024-01-15T07:04:17;95494.91;;;-0.20;63.80
56142;BME280;42018;48.588;10.836;2024-01-15T07:07:03;95493.56;;;-0.46;64.77
56142;BME280;42018;48.588;10.836;2024-01-15T07:09:48;95496.03;;;-0.16;64.26
56142;BME280;42018;48.588;10.836;2024-01-15T07:12:34;95475.56;;;-0.59;65.33
56142;BME280;42018;48.588;10.836;2024-01-15T07:15:20;95465.50;;;-0.44;65.70
56142;BME280;42018;48.588;10.836;2024-01-15T07:18:05;95465.28;;;-0.42;64.96
56142;BME280;42018;48.588;10.836;2024-01-15T07:20:51;95462.34;;;-0.58;66.00
56142;BME280;42018;48.588;10.836;2024-01-15T07:23:36;95463.47;;;-0.42;65.33
56142;BME280;42018;48.588;10.836;2024-01-15T07:26:22;95466.53;;;-0.45;65.54
56142;BME280;42018;48.588;10.836;2024-01-15T07:29:08;95458.47;;;-0.20;64.83
56142;BME280;42018;48.588;10.836;2024-01-15T07:31:53;95481.34;;;-0.34;65.32
56142;BME280;42018;48.588;10.836;2024-01-15T07:34:39;95468.78;;;-0.49;65.47
56142;BME280;42018;48.588;10.836;2024-01-15T07:37:25;95472.09;;;-0.53;66.38
56142;BME280;42018;48.588;10.836;2024-01-15T07:40:10;95470.03;;;-0.51;66.59
56142;BME280;42018;48.588;10.836;2024-01-15T07:42:57;95485.75;;;-0.58;67.13
56142;BME280;42018;48.588;10.836;2024-01-15T07:45:42;95479.44;;;-0.38;66.72
56142;BME280;42018;48.588;10.836;2024-01-15T07:48:28;95474.44;;;-0.28;66.27
56142;BME280;42018;48.588;10.836;2024-01-15T07:51:14;95478.97;;;-0.35;66.40
56142;BME280;42018;48.588;10.836;2024-01-15T07:54:00;95478.63;;;-0.27;66.30
56142;BME280;42018;48.588;10.836;2024-01-15T07:56:59;95478.94;;;0.00;65.02
56142;BME280;42018;48.588;10.836;2024-01-15T07:59:45;95482.34;;;-0.23;65.68
56142;BME280;42018;48.588;10.836;2024-01-15T08:02:30;95483.38;;;-0.24;65.31
56142;BME280;42018;48.588;10.836;2024-01-15T08:05:17;95484.72;;;-0.10;65.28
56142;BME280;42018;48.588;10.836;2024-01-15T08:08:03;95487.56;;;-0.23;65.33
56142;BME280;42018;48.588;10.836;2024-01-15T08:10:49;95498.84;;;-0.06;64.51
56142;BME280;42018;48.588;10.836;2024-01-15T08:13:34;95485.59;;;0.08;63.38
56142;BME280;42018;48.588;10.836;2024-01-15T08:16:20;95485.28;;;-0.19;64.10
56142;BME280;42018;48.588;10.836;2024-01-15T08:19:05;95492.00;;;0.17;63.51
56142;BME280;42018;48.588;10.836;2024-01-15T08:24:36;95481.53;;;-0.12;64.06
56142;BME280;42018;48.588;10.836;2024-01-15T08:27:22;95479.75;;;-0.23;63.77
56142;BME280;42018;48.588;10.836;2024-01-15T08:30:08;95485.53;;;-0.21;64.55
56142;BME280;42018;48.588;10.836;2024-01-15T08:32:55;95489.78;;;-0.15;64.44
56142;BME280;42018;48.588;10.836;2024-01-15T08:35:41;95485.13;;;-0.01;64.34
56142;BME280;42018;48.588;10.836;2024-01-15T08:38:26;95488.34;;;-0.22;64.62
56142;BME280;42018;48.588;10.836;2024-01-15T08:41:13;95483.91;;;-0.22;64.99
56142;BME280;42018;48.588;10.836;2024-01-15T08:43:58;95487.75;;;0.11;64.24
56142;BME280;42018;48.588;10.836;2024-01-15T08:46:44;95486.41;;;-0.15;64.48
56142;BME280;42018;48.588;10.836;2024-01-15T08:49:29;95495.13;;;-0.10;64.56
56142;BME280;42018;48.588;10.836;2024-01-15T08:52:15;95487.44;;;-0.16;64.57
56142;BME280;42018;48.588;10.836;2024-01-15T08:55:01;95495.34;;;-0.11;64.37
56142;BME280;42018;48.588;10.836;2024-01-15T08:57:46;95487.66;;;-0.06;64.26
56142;BME280;42018;48.588;10.836;2024-01-15T09:00:32;95490.59;;;-0.03;64.14
56142;BME280;42018;48.588;10.836;2024-01-15T09:03:17;95479.38;;;-0.15;63.99
56142;BME280;42018;48.588;10.836;2024-01-15T09:06:03;95487.91;;;0.21;63.09
56142;BME280;42018;48.588;10.836;2024-01-15T09:08:49;95485.03;;;-0.18;64.07
56142;BME280;42018;48.588;10.836;2024-01-15T09:11:34;95479.75;;;-0.35;64.00
56142;BME280;42018;48.588;10.836;2024-01-15T09:14:20;95483.66;;;0.03;63.76
56142;BME280;42018;48.588;10.836;2024-01-15T09:19:53;95481.88;;;-0.08;63.75
56142;BME280;42018;48.588;10.836;2024-01-15T09:22:39;95483.75;;;0.20;63.33
56142;BME280;42018;48.588;10.836;2024-01-15T09:25:26;95483.56;;;0.38;63.08
56142;BME280;42018;48.588;10.836;2024-01-15T09:28:12;95491.00;;;0.18;62.86
56142;BME280;42018;48.588;10.836;2024-01-15T09:30:58;95484.00;;;0.18;62.42
56142;BME280;42018;48.588;10.836;2024-01-15T09:33:43;95479.75;;;0.29;62.14
56142;BME280;42018;48.588;10.836;2024-01-15T09:36:29;95482.44;;;0.34;62.00
56142;BME280;42018;48.588;10.836;2024-01-15T09:39:15;95479.97;;;0.39;61.83
56142;BME280;42018;48.588;10.836;2024-01-15T09:42:01;95491.31;;;0.33;61.84
56142;BME280;42018;48.588;10.836;2024-01-15T09:44:48;95486.09;;;0.33;61.85
56142;BME280;42018;48.588;10.836;2024-01-15T09:47:33;95483.69;;;0.43;61.73
56142;BME280;42018;48.588;10.836;2024-01-15T09:50:19;95479.59;;;0.47;61.25
56142;BME280;42018;48.588;10.836;2024-01-15T09:53:05;95474.38;;;0.47;60.84
56142;BME280;42018;48.588;10.836;2024-01-15T09:55:52;95484.03;;;0.35;61.00
56142;BME280;42018;48.588;10.836;2024-01-15T09:58:38;95471.31;;;0.51;61.08
56142;BME280;42018;48.588;10.836;2024-01-15T10:01:24;95471.38;;;0.84;60.48
56142;BME280;42018;48.588;10.836;2024-01-15T10:04:13;95465.28;;;0.95;60.31
56142;BME280;42018;48.588;10.836;2024-01-15T10:07:00;95445.16;;;1.08;59.87
56142;BME280;42018;48.588;10.836;2024-01-15T10:09:46;95438.44;;;1.12;59.31
56142;BME280;42018;48.588;10.836;2024-01-15T10:12:32;95437.56;;;0.89;59.49
56142;BME280;42018;48.588;10.836;2024-01-15T10:15:18;95438.03;;;0.86;59.31
56142;BME280;42018;48.588;10.836;2024-01-15T10:18:07;95437.56;;;1.06;58.67
56142;BME280;42018;48.588;10.836;2024-01-15T10:20:52;95436.16;;;1.32;58.16
56142;BME280;42018;48.588;10.836;2024-01-15T10:23:38;95427.84;;;1.18;58.48
56142;BME280;42018;48.588;10.836;2024-01-15T10:26:26;95421.19;;;1.28;59.00
56142;BME280;42018;48.588;10.836;2024-01-15T10:29:11;95416.63;;;1.01;59.07
56142;BME280;42018;48.588;10.836;2024-01-15T10:31:57;95413.84;;;0.91;58.86
56142;BME280;42018;48.588;10.836;2024-01-15T10:34:43;95426.00;;;0.85;58.81
56142;BME280;42018;48.588;10.836;2024-01-15T10:37:28;95411.63;;;1.00;58.76
56142;BME280;42018;48.588;10.836;2024-01-15T10:40:18;95406.19;;;1.18;58.42
56142;BME280;42018;48.588;10.836;2024-01-15T10:43:04;95414.50;;;1.15;58.41
56142;BME280;42018;48.588;10.836;2024-01-15T10:45:51;95417.97;;;1.04;57.72
56142;BME280;42018;48.588;10.836;2024-01-15T10:48:36;95407.38;;;0.93;57.40
56142;BME280;42018;48.588;10.836;2024-01-15T10:51:23;95404.44;;;1.24;57.04
56142;BME280;42018;48.588;10.836;2024-01-15T10:54:09;95397.53;;;1.34;56.21
56142;BME280;42018;48.588;10.836;2024-01-15T10:56:56;95396.72;;;0.95;56.47
56142;BME280;42018;48.588;10.836;2024-01-15T10:59:42;95390.94;;;1.10;56.87
56142;BME280;42018;48.588;10.836;2024-01-15T11:02:27;95391.03;;;1.15;56.20
56142;BME280;42018;48.588;10.836;2024-01-15T11:05:14;95389.97;;;1.33;55.66
56142;BME280;42018;48.588;10.836;2024-01-15T11:08:01;95399.38;;;1.17;56.16
56142;BME280;42018;48.588;10.836;2024-01-15T11:10:48;95389.09;;;1.27;56.37
56142;BME280;42018;48.588;10.836;2024-01-15T11:16:22;95400.66;;;0.98;56.61
56142;BME280;42018;48.588;10.836;2024-01-15T11:19:08;95395.84;;;0.89;56.49
56142;BME280;42018;48.588;10.836;2024-01-15T11:21:54;95387.63;;;0.98;56.54
56142;BME280;42018;48.588;10.836;2024-01-15T11:24:40;95369.81;;;1.28;56.13
56142;BME280;42018;48.588;10.836;2024-01-15T11:27:45;95373.16;;;1.46;55.98
56142;BME280;42018;48.588;10.836;2024-01-15T11:30:37;95380.94;;;1.40;54.64
56142;BME280;42018;48.588;10.836;2024-01-15T11:33:35;95377.00;;;1.60;54.79
56142;BME280;42018;48.588;10.836;2024-01-15T11:36:21;95387.34;;;1.50;55.51
56142;BME280;42018;48.588;10.836;2024-01-15T11:42:12;95383.09;;;1.87;54.61
56142;BME280;42018;48.588;10.836;2024-01-15T11:44:58;95386.56;;;1.71;54.57
56142;BME280;42018;48.588;10.836;2024-01-15T11:48:14;95384.41;;;1.46;55.48
56142;BME280;42018;48.588;10.836;2024-01-15T11:51:03;95374.19;;;1.44;55.81
56142;BME280;42018;48.588;10.836;2024-01-15T11:53:52;95367.69;;;1.86;55.47
56142;BME280;42018;48.588;10.836;2024-01-15T11:56:41;95369.59;;;1.74;55.46
56142;BME280;42018;48.588;10.836;2024-01-15T11:59:27;95360.94;;;1.68;55.91
56142;BME280;42018;48.588;10.836;2024-01-15T12:02:13;95356.25;;;1.70;55.38
56142;BME280;42018;48.588;10.836;2024-01-15T12:04:59;95357.28;;;1.91;55.04
56142;BME280;42018;48.588;10.836;2024-01-15T12:07:48;95352.34;;;1.95;54.56
56142;BME280;42018;48.588;10.836;2024-01-15T12:10:34;95363.16;;;1.59;55.31
56142;BME280;42018;48.588;10.836;2024-01-15T12:13:21;95350.84;;;1.77;56.04
56142;BME280;42018;48.588;10.836;2024-01-15T12:16:06;95357.13;;;2.03;55.16
56142;BME280;42018;48.588;10.836;2024-01-15T12:18:52;95359.06;;;1.85;55.54
56142;BME280;42018;48.588;10.836;2024-01-15T12:21:39;95356.19;;;1.43;55.78
56142;BME280;42018;48.588;10.836;2024-01-15T12:24:25;95358.72;;;2.04;55.85
56142;BME280;42018;48.588;10.836;2024-01-15T12:27:11;95355.00;;;2.22;55.45
56142;BME280;42018;48.588;10.836;2024-01-15T12:29:58;95355.44;;;2.13;55.63
56142;BME280;42018;48.588;10.836;2024-01-15T12:32:44;95348.66;;;1.90;55.06
56142;BME280;42018;48.588;10.836;2024-01-15T12:35:31;95353.41;;;1.72;56.08
56142;BME280;42018;48.588;10.836;2024-01-15T12:38:19;95351.72;;;2.09;55.43
56142;BME280;42018;48.588;10.836;2024-01-15T12:41:05;95348.16;;;1.94;56.23
56142;BME280;42018;48.588;10.836;2024-01-15T12:43:50;95346.44;;;2.04;55.74
56142;BME280;42018;48.588;10.836;2024-01-15T12:46:36;95337.16;;;2.13;54.96
56142;BME280;42018;48.588;10.836;2024-01-15T12:49:23;95338.38;;;2.06;55.46
56142;BME280;42018;48.588;10.836;2024-01-15T12:52:09;95342.09;;;2.10;55.37
56142;BME280;42018;48.588;10.836;2024-01-15T12:54:56;95339.53;;;2.20;55.23
56142;BME280;42018;48.588;10.836;2024-01-15T12:57:41;95341.38;;;1.49;56.66
56142;BME280;42018;48.588;10.836;2024-01-15T13:00:27;95339.78;;;1.48;57.52
56142;BME280;42018;48.588;10.836;2024-01-15T13:03:13;95329.84;;;1.66;57.95
56142;BME280;42018;48.588;10.836;2024-01-15T13:05:58;95329.06;;;2.15;56.96
56142;BME280;42018;48.588;10.836;2024-01-15T13:08:44;95337.50;;;2.22;56.63
56142;BME280;42018;48.588;10.836;2024-01-15T13:11:30;95341.19;;;2.26;58.15
56142;BME280;42018;48.588;10.836;2024-01-15T13:17:01;95337.16;;;1.26;63.66
56142;BME280;42018;48.588;10.836;2024-01-15T13:19:47;95339.13;;;1.79;62.72
56142;BME280;42018;48.588;10.836;2024-01-15T13:22:32;95339.50;;;1.66;63.99
56142;BME280;42018;48.588;10.836;2024-01-15T13:25:18;95339.66;;;1.37;64.91
56142;BME280;42018;48.588;10.836;2024-01-15T13:28:05;95339.44;;;0.66;70.65
56142;BME280;42018;48.588;10.836;2024-01-15T13:30:50;95336.88;;;1.05;71.52
56142;BME280;42018;48.588;10.836;2024-01-15T13:33:38;95341.63;;;1.08;71.49
56142;BME280;42018;48.588;10.836;2024-01-15T13:36:24;95344.69;;;1.22;71.35
56142;BME280;42018;48.588;10.836;2024-01-15T13:39:10;95344.03;;;0.93;72.25
56142;BME280;42018;48.588;10.836;2024-01-15T13:41:56;95344.44;;;1.24;71.86
56142;BME280;42018;48.588;10.836;2024-01-15T13:44:41;95345.84;;;1.31;71.84
56142;BME280;42018;48.588;10.836;2024-01-15T13:47:27;95335.59;;;1.25;72.36
56142;BME280;42018;48.588;10.836;2024-01-15T13:50:12;95334.13;;;1.12;72.95
56142;BME280;42018;48.588;10.836;2024-01-15T13:52:58;95333.00;;;1.25;72.95
56142;BME280;42018;48.588;10.836;2024-01-15T13:55:44;95339.63;;;1.32;72.58
56142;BME280;42018;48.588;10.836;2024-01-15T13:58:30;95345.81;;;1.48;72.33
56142;BME280;42018;48.588;10.836;2024-01-15T14:01:16;95342.75;;;1.56;72.05
56142;BME280;42018;48.588;10.836;2024-01-15T14:04:03;95349.75;;;1.51;72.61
56142;BME280;42018;48.588;10.836;2024-01-15T14:06:48;95354.31;;;1.60;72.26
56142;BME280;42018;48.588;10.836;2024-01-15T14:09:34;95359.50;;;1.38;73.04
56142;BME280;42018;48.588;10.836;2024-01-15T14:12:19;95375.69;;;1.57;72.68
56142;BME280;42018;48.588;10.836;2024-01-15T14:15:05;95376.63;;;1.29;74.71
56142;BME280;42018;48.588;10.836;2024-01-15T14:17:51;95372.44;;;1.28;75.07
56142;BME280;42018;48.588;10.836;2024-01-15T14:20:37;95372.13;;;1.08;76.14
56142;BME280;42018;48.588;10.836;2024-01-15T14:23:23;95380.91;;;0.68;78.24
56142;BME280;42018;48.588;10.836;2024-01-15T14:26:09;95382.72;;;1.01;77.63
56142;BME280;42018;48.588;10.836;2024-01-15T14:28:55;95382.00;;;1.23;76.45
56142;BME280;42018;48.588;10.836;2024-01-15T14:31:40;95379.84;;;1.36;75.66
56142;BME280;42018;48.588;10.836;2024-01-15T14:34:26;95386.44;;;1.22;75.47
56142;BME280;42018;48.588;10.836;2024-01-15T14:37:11;95379.41;;;1.06;76.48
56142;BME280;42018;48.588;10.836;2024-01-15T14:39:57;95390.78;;;1.00;76.32
56142;BME280;42018;48.588;10.836;2024-01-15T14:42:43;95388.47;;;1.03;76.20
56142;BME280;42018;48.588;10.836;2024-01-15T14:45:28;95390.38;;;0.91;75.83